Terminal Aerodrome Forecast
Issued by NWS

Home | Current Version | Previous Version | Text Only | Print | Product List | Glossary On
Versions: 1 2 3 4 5 6 7 8 9 10 11 12 13
000
FTUS43 KDTX 201100
TAFMBS
TAF
KMBS 201120Z 2012/2112 15006KT P6SM BKN250
     FM201500 21011KT P6SM BKN200
     FM210000 20006KT P6SM BKN120=

USA.gov is the U.S. government's official web portal to all federal, state and local government web resources and services.